Time;durP1;ratioP1;P1;durP2;ratioP2;P2;SDS_P1;SDS_P2;PMS_P1;PMS_P2;Temp;Humidity;BMP_temperature;BMP_pressure;BME280_temperature;BME280_humidity;BME280_pressure;Samples;Min_cycle;Max_cycle;Signal;HPM_P1;HPM_P2
2021/10/06 00:01:36;;;;;;;7.40;2.20;;;12.00;87.00;;;;;;5075405;28;20039;-49
2021/10/06 00:04:02;;;;;;;5.90;2.03;;;11.90;87.20;;;;;;5075693;28;20411;-47
2021/10/06 00:06:28;;;;;;;7.57;2.28;;;11.80;87.40;;;;;;5075828;28;20384;-52
2021/10/06 00:08:53;;;;;;;4.82;2.47;;;11.80;87.60;;;;;;5075425;28;20025;-47
2021/10/06 00:11:19;;;;;;;11.40;2.20;;;11.70;87.40;;;;;;5057267;28;20025;-48
2021/10/06 00:13:46;;;;;;;9.80;1.83;;;11.70;87.50;;;;;;5075622;28;20048;-49
2021/10/06 00:16:12;;;;;;;4.32;1.40;;;11.70;87.70;;;;;;5075173;28;20070;-49
2021/10/06 00:18:39;;;;;;;6.28;2.50;;;11.60;87.80;;;;;;5075420;28;20029;-49
2021/10/06 00:21:06;;;;;;;6.63;1.80;;;11.60;87.70;;;;;;5057804;28;20107;-50
2021/10/06 00:23:32;;;;;;;13.32;2.05;;;11.60;87.60;;;;;;5075138;28;20025;-49
2021/10/06 00:25:59;;;;;;;5.07;1.73;;;11.50;87.80;;;;;;5075325;28;20024;-50
2021/10/06 00:28:25;;;;;;;6.28;1.55;;;11.70;87.40;;;;;;5074946;28;20031;-52
2021/10/06 00:30:51;;;;;;;7.28;2.25;;;11.60;87.20;;;;;;5075111;28;20562;-49
2021/10/06 00:33:17;;;;;;;4.85;1.75;;;11.60;87.50;;;;;;5075316;28;20016;-49
2021/10/06 00:35:42;;;;;;;7.32;2.58;;;11.50;87.40;;;;;;5075283;28;20070;-51
2021/10/06 00:38:08;;;;;;;5.72;1.95;;;11.50;87.50;;;;;;5075415;28;20101;-49
2021/10/06 00:40:34;;;;;;;6.05;1.38;;;11.50;87.70;;;;;;5075280;28;20020;-48
2021/10/06 00:43:00;;;;;;;9.85;2.28;;;11.40;87.70;;;;;;5075238;28;20024;-47
2021/10/06 00:45:25;;;;;;;7.97;2.30;;;11.30;87.90;;;;;;5075416;28;20396;-50
2021/10/06 00:47:51;;;;;;;7.38;1.88;;;11.30;87.90;;;;;;5074669;28;20032;-49
2021/10/06 00:50:17;;;;;;;8.65;2.10;;;11.30;88.20;;;;;;5074782;28;20025;-50
2021/10/06 00:52:45;;;;;;;10.73;2.90;;;11.30;88.00;;;;;;5074855;28;20043;-51
2021/10/06 00:55:13;;;;;;;7.13;2.63;;;11.30;87.80;;;;;;5074565;28;20039;-50
2021/10/06 00:57:39;;;;;;;7.60;2.42;;;11.30;87.70;;;;;;5056478;28;20039;-52
2021/10/06 01:00:05;;;;;;;10.02;2.45;;;11.30;87.80;;;;;;5074214;28;20020;-48
2021/10/06 01:02:31;;;;;;;4.85;2.72;;;11.30;87.70;;;;;;5075247;28;20063;-48
2021/10/06 01:04:57;;;;;;;12.00;2.38;;;11.30;87.50;;;;;;5056402;28;20491;-50
2021/10/06 01:07:23;;;;;;;5.95;1.88;;;11.30;87.60;;;;;;5074232;28;20381;-52
2021/10/06 01:09:49;;;;;;;12.52;1.95;;;11.30;87.10;;;;;;5055504;28;20107;-48
2021/10/06 01:12:15;;;;;;;5.97;2.10;;;11.30;87.50;;;;;;5074215;28;20024;-48
2021/10/06 01:14:40;;;;;;;5.88;2.28;;;11.20;87.50;;;;;;5074133;28;20024;-50
2021/10/06 01:17:06;;;;;;;6.60;2.17;;;11.30;87.50;;;;;;5073662;28;20099;-52
2021/10/06 01:19:32;;;;;;;9.90;2.22;;;11.30;87.30;;;;;;5073774;28;20029;-51
2021/10/06 01:21:59;;;;;;;16.70;3.63;;;11.30;87.30;;;;;;5074126;28;20024;-49
2021/10/06 01:24:26;;;;;;;8.20;2.47;;;11.30;87.00;;;;;;5073891;28;20028;-51
2021/10/06 01:26:52;;;;;;;7.32;2.50;;;11.30;86.80;;;;;;5073552;28;20032;-50
2021/10/06 01:29:18;;;;;;;8.10;2.25;;;11.30;87.20;;;;;;5073935;28;20044;-50
2021/10/06 01:31:46;;;;;;;5.55;1.08;;;11.30;86.90;;;;;;5073460;28;20558;-48
2021/10/06 01:34:12;;;;;;;8.63;1.85;;;11.30;86.70;;;;;;5055515;28;20332;-50
2021/10/06 01:36:38;;;;;;;6.32;2.30;;;11.20;87.10;;;;;;5073651;28;20020;-52
2021/10/06 01:39:06;;;;;;;6.82;1.95;;;11.20;86.90;;;;;;5073566;28;20036;-50
2021/10/06 01:41:34;;;;;;;6.45;1.70;;;11.30;86.90;;;;;;5073521;28;20518;-48
2021/10/06 01:44:00;;;;;;;11.88;1.80;;;11.20;86.90;;;;;;5073475;28;20021;-48
2021/10/06 01:46:26;;;;;;;7.68;1.67;;;11.20;87.00;;;;;;5073743;28;20029;-51
2021/10/06 01:48:51;;;;;;;3.83;1.70;;;11.20;87.10;;;;;;5055497;28;20111;-48
2021/10/06 01:51:17;;;;;;;6.30;2.08;;;11.10;87.10;;;;;;5073599;28;20115;-48
2021/10/06 01:53:43;;;;;;;7.95;2.17;;;11.10;87.20;;;;;;5073722;28;20028;-51
2021/10/06 01:56:08;;;;;;;7.43;1.80;;;11.10;87.10;;;;;;5073274;28;20021;-51
2021/10/06 01:58:34;;;;;;;11.75;4.00;;;11.10;87.30;;;;;;5073174;28;20063;-51
2021/10/06 02:01:00;;;;;;;7.65;2.92;;;11.10;87.30;;;;;;5073581;28;20078;-47
2021/10/06 02:03:27;;;;;;;5.43;1.30;;;11.00;87.30;;;;;;5073018;28;20423;-48
2021/10/06 02:05:53;;;;;;;8.63;2.10;;;11.10;87.10;;;;;;5073520;28;20460;-52
2021/10/06 02:08:19;;;;;;;3.42;1.70;;;11.10;87.00;;;;;;5072943;28;20060;-47
2021/10/06 02:10:45;;;;;;;2.17;1.75;;;11.10;86.90;;;;;;5073294;28;20166;-48
2021/10/06 02:13:11;;;;;;;5.63;1.77;;;11.10;86.70;;;;;;5072897;28;20103;-48
2021/10/06 02:15:37;;;;;;;4.85;1.38;;;11.10;86.90;;;;;;5073009;28;20398;-48
2021/10/06 02:18:03;;;;;;;7.45;2.22;;;11.00;86.90;;;;;;5072880;28;20028;-52
2021/10/06 02:20:30;;;;;;;12.43;1.85;;;11.10;86.70;;;;;;5054876;28;20032;-49
2021/10/06 02:22:56;;;;;;;10.15;2.25;;;11.10;86.50;;;;;;5072323;28;20027;-48
2021/10/06 02:25:22;;;;;;;9.27;3.85;;;11.10;86.80;;;;;;5072811;28;20029;-48
2021/10/06 02:27:48;;;;;;;7.57;2.28;;;11.20;86.30;;;;;;5072735;28;20130;-50
2021/10/06 02:30:15;;;;;;;13.40;3.30;;;11.10;86.40;;;;;;5072844;28;20162;-49
2021/10/06 02:32:41;;;;;;;10.70;3.22;;;11.20;86.00;;;;;;5073093;28;20021;-51
2021/10/06 02:35:08;;;;;;;5.63;1.92;;;11.20;86.00;;;;;;5073498;28;20029;-50
2021/10/06 02:37:34;;;;;;;7.35;2.05;;;11.20;86.10;;;;;;5073096;28;20027;-53
2021/10/06 02:40:00;;;;;;;4.13;1.60;;;11.20;86.10;;;;;;5072812;28;20107;-49
2021/10/06 02:42:25;;;;;;;6.53;2.17;;;11.20;85.90;;;;;;5072750;28;20436;-48
2021/10/06 02:44:51;;;;;;;13.25;3.15;;;11.20;85.70;;;;;;5073459;28;20029;-48
2021/10/06 02:47:17;;;;;;;7.90;2.00;;;11.10;86.00;;;;;;5072675;28;20115;-51
2021/10/06 02:49:43;;;;;;;4.28;1.50;;;11.10;86.00;;;;;;5072746;28;20365;-49
2021/10/06 02:52:08;;;;;;;10.77;2.97;;;11.20;85.90;;;;;;5072858;28;20046;-49
2021/10/06 02:54:34;;;;;;;10.10;2.03;;;11.30;85.50;;;;;;5073337;28;20032;-50
2021/10/06 02:57:01;;;;;;;8.23;1.95;;;11.40;85.20;;;;;;5072983;28;20028;-50
2021/10/06 02:59:31;;;;;;;13.93;2.60;;;11.40;85.10;;;;;;5072586;28;20029;-49
2021/10/06 03:01:56;;;;;;;9.05;1.63;;;11.50;84.60;;;;;;5072928;28;20012;-49
2021/10/06 03:04:22;;;;;;;5.10;2.20;;;11.40;84.80;;;;;;5072500;28;20400;-48
2021/10/06 03:06:48;;;;;;;10.40;1.77;;;11.50;84.60;;;;;;5072518;28;20048;-47
2021/10/06 03:09:14;;;;;;;5.18;2.00;;;11.40;84.60;;;;;;5072415;28;20468;-48
2021/10/06 03:11:39;;;;;;;8.10;2.50;;;11.40;84.70;;;;;;5054939;28;20166;-47
2021/10/06 03:14:05;;;;;;;9.57;2.55;;;11.50;84.50;;;;;;5072458;28;20020;-47
2021/10/06 03:16:31;;;;;;;6.13;2.80;;;11.50;84.50;;;;;;5072482;28;20025;-48
2021/10/06 03:18:56;;;;;;;9.60;3.08;;;11.50;84.50;;;;;;5072528;28;20049;-50
2021/10/06 03:21:22;;;;;;;11.13;2.05;;;11.40;84.30;;;;;;5073397;28;20028;-47
2021/10/06 03:23:48;;;;;;;8.23;3.15;;;11.50;84.50;;;;;;5073300;28;20020;-51
2021/10/06 03:26:13;;;;;;;7.13;3.10;;;11.50;84.10;;;;;;5072776;28;20388;-51
2021/10/06 03:28:39;;;;;;;6.53;2.30;;;11.50;84.30;;;;;;5072685;28;20028;-47
2021/10/06 03:31:05;;;;;;;8.85;2.58;;;11.50;84.10;;;;;;5054411;28;20016;-51
2021/10/06 03:33:30;;;;;;;13.73;2.30;;;11.50;84.10;;;;;;5074319;28;20082;-48
2021/10/06 03:35:56;;;;;;;9.48;2.13;;;11.50;84.40;;;;;;5076312;28;20112;-50
2021/10/06 03:38:22;;;;;;;5.82;2.53;;;11.50;84.00;;;;;;5076039;28;20411;-47
2021/10/06 03:40:47;;;;;;;8.65;2.95;;;11.60;83.80;;;;;;5075926;28;20033;-46
2021/10/06 03:43:13;;;;;;;8.35;2.60;;;11.60;83.50;;;;;;5057864;28;20033;-46
2021/10/06 03:45:39;;;;;;;10.88;2.67;;;11.60;83.60;;;;;;5076032;28;20028;-50
2021/10/06 03:48:05;;;;;;;11.35;2.55;;;11.70;83.20;;;;;;5075630;28;20021;-48
2021/10/06 03:50:31;;;;;;;2.13;1.42;;;11.60;83.40;;;;;;5076288;28;20606;-48
2021/10/06 03:52:56;;;;;;;3.92;1.60;;;11.70;83.30;;;;;;5076113;28;20115;-52
2021/10/06 03:55:22;;;;;;;8.90;2.13;;;11.70;83.10;;;;;;5057788;28;20047;-50
2021/10/06 03:57:48;;;;;;;18.20;2.42;;;11.80;83.20;;;;;;5075466;28;20032;-50
2021/10/06 04:00:14;;;;;;;11.43;2.70;;;11.70;83.00;;;;;;5075739;28;20040;-48
2021/10/06 04:02:40;;;;;;;6.70;2.40;;;11.70;83.00;;;;;;5075434;28;20418;-51
2021/10/06 04:05:07;;;;;;;3.50;1.85;;;11.70;83.10;;;;;;5075218;28;20044;-47
2021/10/06 04:07:33;;;;;;;6.32;1.80;;;11.70;82.30;;;;;;5075378;28;20074;-47
2021/10/06 04:09:59;;;;;;;11.15;2.67;;;11.80;81.90;;;;;;5075308;28;20028;-51
2021/10/06 04:12:25;;;;;;;8.63;1.80;;;11.80;81.90;;;;;;5075711;28;20095;-47
2021/10/06 04:14:50;;;;;;;6.00;2.70;;;11.90;82.10;;;;;;5075546;28;20021;-48
2021/10/06 04:17:16;;;;;;;3.55;1.58;;;11.80;82.10;;;;;;5075235;28;20025;-48
2021/10/06 04:19:42;;;;;;;7.18;2.03;;;11.80;82.00;;;;;;5075175;28;20081;-49
2021/10/06 04:22:07;;;;;;;11.32;1.92;;;11.80;82.00;;;;;;5075203;28;20025;-48
2021/10/06 04:24:33;;;;;;;4.22;1.60;;;11.80;81.70;;;;;;5075018;28;20017;-49
2021/10/06 04:26:58;;;;;;;12.10;1.67;;;11.80;82.00;;;;;;5074804;28;20028;-50
2021/10/06 04:29:25;;;;;;;5.25;1.95;;;11.80;82.20;;;;;;5075512;28;20317;-46
2021/10/06 04:31:51;;;;;;;3.95;1.80;;;11.80;82.10;;;;;;5075053;28;20059;-50
2021/10/06 04:34:16;;;;;;;7.35;2.08;;;11.80;81.90;;;;;;5075072;28;20063;-50
2021/10/06 04:36:42;;;;;;;7.85;2.10;;;11.80;82.40;;;;;;5075147;28;20018;-49
2021/10/06 04:39:08;;;;;;;7.50;2.80;;;11.80;81.90;;;;;;5075320;28;20032;-47
2021/10/06 04:41:34;;;;;;;9.18;1.80;;;11.80;82.30;;;;;;5074922;28;20154;-48
2021/10/06 04:44:01;;;;;;;7.38;2.25;;;11.80;81.90;;;;;;5075304;28;20056;-48
2021/10/06 04:46:28;;;;;;;15.82;2.58;;;11.80;81.90;;;;;;5074546;28;20444;-48
2021/10/06 04:48:53;;;;;;;4.85;1.70;;;11.80;82.30;;;;;;5056517;28;20032;-50
2021/10/06 04:51:19;;;;;;;5.18;1.50;;;11.70;82.00;;;;;;5074775;28;20483;-47
2021/10/06 04:53:45;;;;;;;9.18;1.63;;;11.80;81.80;;;;;;5074957;28;20024;-48
2021/10/06 04:56:10;;;;;;;6.82;1.75;;;11.70;82.00;;;;;;5074546;28;20059;-49
2021/10/06 04:58:36;;;;;;;4.00;1.88;;;11.80;81.90;;;;;;5074684;28;20032;-49
2021/10/06 05:01:02;;;;;;;12.52;2.15;;;11.80;81.80;;;;;;5074420;28;20036;-49
2021/10/06 05:03:27;;;;;;;16.80;2.35;;;11.80;81.70;;;;;;5074398;28;20029;-50
2021/10/06 05:05:53;;;;;;;14.65;1.58;;;11.80;81.60;;;;;;5074228;28;20054;-47
2021/10/06 05:08:19;;;;;;;6.32;2.05;;;11.80;81.50;;;;;;5074224;28;20476;-48
2021/10/06 05:10:44;;;;;;;6.05;2.75;;;11.80;81.70;;;;;;5074434;28;20573;-47
2021/10/06 05:13:11;;;;;;;6.50;1.50;;;11.80;81.60;;;;;;5055898;28;20025;-50
2021/10/06 05:15:36;;;;;;;7.85;1.65;;;11.80;81.40;;;;;;5056158;28;20381;-48
2021/10/06 05:18:02;;;;;;;8.55;2.92;;;11.70;81.60;;;;;;5073829;28;20033;-48
2021/10/06 05:20:28;;;;;;;4.45;1.65;;;11.80;81.30;;;;;;5073700;28;20024;-49
2021/10/06 05:22:54;;;;;;;6.65;1.70;;;11.80;81.40;;;;;;5073735;28;20029;-50
2021/10/06 05:25:23;;;;;;;6.18;1.63;;;11.80;81.50;;;;;;5074395;28;20560;-49
2021/10/06 05:27:49;;;;;;;10.00;2.13;;;11.80;81.80;;;;;;5073898;28;20027;-48
2021/10/06 05:30:15;;;;;;;12.95;2.58;;;11.80;81.30;;;;;;5073601;28;20116;-46
2021/10/06 05:32:40;;;;;;;5.82;1.80;;;11.80;81.40;;;;;;5073934;28;20031;-47
2021/10/06 05:35:08;;;;;;;5.22;2.13;;;11.80;81.30;;;;;;5073718;28;20024;-51
2021/10/06 05:37:34;;;;;;;13.10;2.20;;;11.80;81.20;;;;;;5073702;28;20089;-46
2021/10/06 05:40:00;;;;;;;4.47;1.67;;;11.70;81.70;;;;;;5074281;28;20504;-46
2021/10/06 05:42:25;;;;;;;6.93;1.88;;;11.70;81.70;;;;;;5073873;28;20063;-46
2021/10/06 05:44:51;;;;;;;9.52;1.95;;;11.80;81.60;;;;;;5073778;28;20101;-47
2021/10/06 05:47:17;;;;;;;11.85;2.05;;;11.80;81.30;;;;;;5073357;28;20024;-49
2021/10/06 05:49:42;;;;;;;7.60;1.63;;;11.80;81.00;;;;;;5073022;28;20153;-47
2021/10/06 05:52:08;;;;;;;7.53;1.65;;;11.90;81.00;;;;;;5073174;28;20043;-49
2021/10/06 05:54:34;;;;;;;5.18;1.98;;;11.90;80.70;;;;;;5073477;28;20384;-50
2021/10/06 05:57:00;;;;;;;8.05;2.10;;;11.80;80.80;;;;;;5054971;28;20044;-46
2021/10/06 05:59:26;;;;;;;6.28;1.60;;;11.80;81.20;;;;;;5073220;28;20063;-47
2021/10/06 06:01:52;;;;;;;6.05;1.50;;;11.80;81.10;;;;;;5073381;28;20078;-50
2021/10/06 06:04:17;;;;;;;5.88;2.60;;;11.80;81.20;;;;;;5072857;28;20052;-49
2021/10/06 06:06:44;;;;;;;5.30;2.22;;;11.80;80.90;;;;;;5073653;28;20039;-52
2021/10/06 06:09:11;;;;;;;12.80;2.35;;;11.80;81.20;;;;;;5073466;28;20022;-47
2021/10/06 06:11:37;;;;;;;8.82;1.63;;;11.80;80.90;;;;;;5073259;28;20073;-46
2021/10/06 06:14:06;;;;;;;6.72;2.05;;;11.90;80.80;;;;;;5072987;28;20032;-48
2021/10/06 06:16:32;;;;;;;10.25;1.98;;;11.90;80.50;;;;;;5055725;28;20017;-50
2021/10/06 06:18:58;;;;;;;6.38;2.35;;;11.80;80.70;;;;;;5072651;28;20032;-50
2021/10/06 06:21:24;;;;;;;6.38;1.73;;;11.90;80.30;;;;;;5072602;28;20476;-50
2021/10/06 06:23:50;;;;;;;9.07;1.90;;;11.90;80.50;;;;;;5072919;28;20025;-48
2021/10/06 06:26:15;;;;;;;8.45;3.15;;;11.90;80.20;;;;;;5054549;28;20036;-47
2021/10/06 06:28:41;;;;;;;8.60;1.98;;;12.00;79.60;;;;;;5072516;28;20028;-49
2021/10/06 06:31:07;;;;;;;9.88;2.10;;;12.10;79.50;;;;;;5072591;28;20020;-49
2021/10/06 06:33:34;;;;;;;6.35;2.10;;;12.10;80.50;;;;;;5054422;28;20021;-48
2021/10/06 06:36:00;;;;;;;4.95;1.27;;;12.10;80.40;;;;;;5072867;28;20177;-47
2021/10/06 06:38:27;;;;;;;5.50;1.50;;;11.90;81.10;;;;;;5072625;28;20111;-49
2021/10/06 06:40:53;;;;;;;9.45;2.90;;;11.80;81.60;;;;;;5072614;28;20035;-47
2021/10/06 06:43:18;;;;;;;8.40;3.00;;;11.80;82.60;;;;;;5072812;28;20357;-49
2021/10/06 06:45:47;;;;;;;7.68;1.73;;;11.80;82.40;;;;;;5072491;28;20036;-46
2021/10/06 06:48:13;;;;;;;5.13;1.73;;;11.80;83.00;;;;;;5054819;28;20035;-47
2021/10/06 06:50:39;;;;;;;7.05;2.03;;;11.60;83.80;;;;;;5072240;28;20029;-47
2021/10/06 06:53:05;;;;;;;6.13;1.63;;;11.60;84.60;;;;;;5072232;28;20445;-48
2021/10/06 06:55:30;;;;;;;5.85;2.25;;;11.50;85.00;;;;;;5072080;28;20444;-49
2021/10/06 06:57:56;;;;;;;8.13;2.55;;;11.40;86.10;;;;;;5071839;28;20054;-48
2021/10/06 07:00:22;;;;;;;9.85;2.17;;;11.30;87.00;;;;;;5071964;28;20032;-47
2021/10/06 07:02:47;;;;;;;7.20;2.45;;;11.20;86.90;;;;;;5072124;28;20031;-48
2021/10/06 07:05:13;;;;;;;11.85;3.00;;;11.20;87.10;;;;;;5072108;28;20056;-50
2021/10/06 07:07:39;;;;;;;5.88;2.20;;;11.10;87.70;;;;;;5072076;28;20078;-48
2021/10/06 07:10:05;;;;;;;4.80;2.38;;;11.10;88.20;;;;;;5076216;28;20070;-48
2021/10/06 07:12:31;;;;;;;10.10;2.25;;;11.10;88.60;;;;;;5075894;28;20025;-47
2021/10/06 07:14:57;;;;;;;9.07;2.55;;;11.00;88.70;;;;;;5075973;28;20469;-49
2021/10/06 07:17:23;;;;;;;8.95;2.55;;;10.80;88.80;;;;;;5075767;28;20123;-48
2021/10/06 07:19:48;;;;;;;5.10;1.70;;;10.90;89.00;;;;;;5075701;28;20460;-51
2021/10/06 07:22:16;;;;;;;7.20;2.60;;;10.90;89.10;;;;;;5075410;28;20085;-47
2021/10/06 07:24:43;;;;;;;10.15;2.65;;;10.90;89.20;;;;;;5075361;28;20021;-49
2021/10/06 07:27:10;;;;;;;10.20;2.38;;;10.90;89.10;;;;;;5057589;28;20025;-50
2021/10/06 07:29:36;;;;;;;8.00;2.78;;;10.90;88.70;;;;;;5057623;28;20103;-49
2021/10/06 07:32:02;;;;;;;9.52;2.90;;;10.90;88.50;;;;;;5076240;28;20016;-49
2021/10/06 07:34:28;;;;;;;11.52;2.47;;;10.90;88.90;;;;;;5075546;28;20031;-49
2021/10/06 07:36:54;;;;;;;6.78;3.17;;;10.80;88.60;;;;;;5075857;28;20024;-51
2021/10/06 07:39:19;;;;;;;10.20;2.00;;;10.90;88.90;;;;;;5075434;28;20107;-51
2021/10/06 07:41:45;;;;;;;9.32;2.58;;;10.90;87.90;;;;;;5075732;28;20029;-49
2021/10/06 07:44:11;;;;;;;3.25;1.65;;;10.90;88.30;;;;;;5075716;28;20052;-49
2021/10/06 07:46:37;;;;;;;7.55;2.15;;;11.10;87.60;;;;;;5075534;28;20021;-48
2021/10/06 07:49:02;;;;;;;3.38;1.98;;;11.10;87.60;;;;;;5075525;28;20024;-50
2021/10/06 07:51:28;;;;;;;8.20;1.95;;;11.20;87.40;;;;;;5057417;28;20107;-48
2021/10/06 07:53:54;;;;;;;7.32;2.03;;;11.10;87.60;;;;;;5057217;28;20020;-48
2021/10/06 07:56:20;;;;;;;5.25;1.55;;;11.00;87.40;;;;;;5075808;28;20021;-48
2021/10/06 07:58:46;;;;;;;4.03;1.60;;;11.20;87.50;;;;;;5075145;28;20036;-53
2021/10/06 08:01:13;;;;;;;7.53;2.05;;;11.20;86.30;;;;;;5075496;28;20105;-48
2021/10/06 08:03:38;;;;;;;7.50;3.20;;;11.20;86.60;;;;;;5075249;28;20036;-47
2021/10/06 08:06:04;;;;;;;7.00;2.08;;;11.30;86.00;;;;;;5075022;28;20044;-47
2021/10/06 08:08:30;;;;;;;7.95;1.92;;;11.40;86.10;;;;;;5075147;28;20060;-48
2021/10/06 08:10:57;;;;;;;4.47;1.73;;;11.50;86.10;;;;;;5075278;28;20016;-48
2021/10/06 08:13:23;;;;;;;6.50;1.80;;;11.40;85.00;;;;;;5075134;28;20103;-49
2021/10/06 08:15:51;;;;;;;3.90;2.35;;;11.40;85.60;;;;;;5075015;28;20048;-50
2021/10/06 08:18:19;;;;;;;3.70;1.38;;;11.40;86.00;;;;;;5056629;28;20107;-51
2021/10/06 08:20:46;;;;;;;8.38;1.40;;;11.40;85.80;;;;;;5055432;28;20025;-51
2021/10/06 08:23:12;;;;;;;9.80;2.00;;;11.40;86.30;;;;;;5075222;28;20115;-51
2021/10/06 08:25:37;;;;;;;6.55;2.95;;;11.30;87.20;;;;;;5074586;28;20048;-50
2021/10/06 08:28:04;;;;;;;11.20;2.42;;;11.20;87.30;;;;;;5074783;28;20032;-48
2021/10/06 08:30:29;;;;;;;10.73;1.80;;;11.10;87.70;;;;;;5074986;28;20472;-49
2021/10/06 08:32:55;;;;;;;6.15;1.80;;;10.90;88.10;;;;;;5074803;28;20073;-48
2021/10/06 08:35:21;;;;;;;8.75;2.00;;;11.00;88.80;;;;;;5056552;28;20024;-48
2021/10/06 08:37:46;;;;;;;3.78;2.20;;;11.00;88.40;;;;;;5074645;28;20032;-49
2021/10/06 08:40:13;;;;;;;5.90;2.83;;;10.90;88.20;;;;;;5074721;28;20362;-49
2021/10/06 08:42:43;;;;;;;7.60;2.15;;;10.80;89.30;;;;;;5057112;28;20035;-49
2021/10/06 08:45:10;;;;;;;7.53;2.28;;;10.80;89.60;;;;;;5056764;28;20051;-47
2021/10/06 08:47:40;;;;;;;7.90;1.77;;;10.70;89.70;;;;;;5074549;28;20369;-50
2021/10/06 08:50:09;;;;;;;5.97;1.77;;;10.70;90.00;;;;;;5074580;28;20028;-49
2021/10/06 08:52:34;;;;;;;6.18;2.55;;;10.80;89.50;;;;;;5074826;28;20029;-49
2021/10/06 08:55:06;;;;;;;9.45;2.25;;;10.80;89.20;;;;;;5075070;28;20075;-49
2021/10/06 08:57:33;;;;;;;10.02;2.85;;;10.80;89.60;;;;;;5074559;28;20020;-50
2021/10/06 08:59:59;;;;;;;2.13;1.92;;;10.80;89.70;;;;;;5074386;28;20170;-52
2021/10/06 09:02:24;;;;;;;9.77;3.72;;;10.80;89.70;;;;;;5074430;28;20020;-50
2021/10/06 09:04:51;;;;;;;14.30;3.47;;;10.80;90.00;;;;;;5073636;28;20052;-49
2021/10/06 09:07:17;;;;;;;3.75;1.98;;;11.00;89.30;;;;;;5073784;28;20020;-48
2021/10/06 09:09:43;;;;;;;6.85;2.70;;;11.00;89.30;;;;;;5073849;28;20166;-51
2021/10/06 09:12:18;;;;;;;3.33;2.25;;;11.10;88.80;;;;;;5073554;28;20048;-51
2021/10/06 09:14:46;;;;;;;11.38;2.75;;;11.10;88.70;;;;;;5073342;28;20052;-51
2021/10/06 09:17:13;;;;;;;7.90;2.55;;;11.10;89.20;;;;;;5073862;28;20552;-48
2021/10/06 09:19:44;;;;;;;9.77;2.70;;;11.00;90.50;;;;;;5073493;28;20021;-49
2021/10/06 09:22:23;;;;;;;9.98;2.90;;;10.80;90.30;;;;;;5074248;28;20024;-51
2021/10/06 09:24:59;;;;;;;10.18;2.20;;;10.90;90.30;;;;;;5073748;28;20025;-49
2021/10/06 09:27:28;;;;;;;5.00;2.58;;;10.90;90.00;;;;;;5073800;28;20554;-50
2021/10/06 09:30:00;;;;;;;11.45;2.72;;;11.00;89.90;;;;;;5073640;28;20034;-49
2021/10/06 09:32:37;;;;;;;4.50;2.30;;;11.10;89.30;;;;;;5073208;28;20024;-50
2021/10/06 09:35:06;;;;;;;4.90;2.65;;;11.20;88.90;;;;;;5073197;28;20103;-49
2021/10/06 09:37:32;;;;;;;6.03;2.20;;;11.20;89.20;;;;;;5073075;28;20021;-49
2021/10/06 09:39:58;;;;;;;6.93;2.03;;;11.30;88.20;;;;;;5073040;28;20387;-48
2021/10/06 09:42:23;;;;;;;9.20;2.28;;;11.30;88.40;;;;;;5072914;28;20032;-49
2021/10/06 09:44:57;;;;;;;12.93;3.30;;;11.20;88.80;;;;;;5073108;28;20047;-48
2021/10/06 09:47:24;;;;;;;6.18;2.28;;;11.10;89.20;;;;;;5073425;28;20046;-49
2021/10/06 09:49:55;;;;;;;4.80;2.33;;;11.10;90.10;;;;;;5072814;28;20031;-53
2021/10/06 09:52:23;;;;;;;4.22;2.35;;;11.10;89.70;;;;;;5073073;28;20017;-49
2021/10/06 09:54:56;;;;;;;5.72;2.00;;;11.20;90.00;;;;;;5073312;28;20017;-47
2021/10/06 09:57:29;;;;;;;5.57;2.10;;;11.10;89.80;;;;;;5072831;28;20040;-49
2021/10/06 10:00:04;;;;;;;3.00;1.92;;;11.20;89.60;;;;;;5072879;28;20108;-49
2021/10/06 10:02:30;;;;;;;8.80;3.42;;;11.10;90.20;;;;;;5073149;28;20025;-49
2021/10/06 10:04:57;;;;;;;8.90;4.25;;;11.10;90.40;;;;;;5072558;28;20047;-48
2021/10/06 10:07:23;;;;;;;8.40;2.10;;;11.20;90.40;;;;;;5073034;28;20025;-48
2021/10/06 10:09:51;;;;;;;6.03;2.90;;;11.20;90.20;;;;;;5072609;28;20103;-52
2021/10/06 10:12:22;;;;;;;5.20;2.53;;;11.10;90.70;;;;;;5072761;28;20139;-54
2021/10/06 10:14:49;;;;;;;;;;;11.00;91.10;;;;;;5073533;28;20111;-49
2021/10/06 10:17:16;;;;;;;6.43;2.33;;;11.00;91.20;;;;;;5072740;28;20201;-52
2021/10/06 10:19:43;;;;;;;8.98;3.35;;;11.00;91.20;;;;;;5072672;28;20020;-49
2021/10/06 10:22:10;;;;;;;6.75;2.78;;;11.00;91.10;;;;;;5072983;28;20431;-50
2021/10/06 10:24:48;;;;;;;13.45;3.28;;;11.00;91.30;;;;;;5073023;28;20024;-50
2021/10/06 10:27:16;;;;;;;7.18;2.72;;;11.10;91.90;;;;;;5054406;28;20489;-49
2021/10/06 10:30:03;;;;;;;11.02;4.03;;;11.10;91.90;;;;;;5054604;28;20020;-48
2021/10/06 10:32:45;;;;;;;4.13;2.38;;;11.00;92.20;;;;;;5072710;28;20095;-52
2021/10/06 10:35:14;;;;;;;7.20;3.65;;;11.00;92.40;;;;;;5072759;28;20029;-51
2021/10/06 10:37:46;;;;;;;11.73;2.80;;;10.90;92.40;;;;;;5073116;28;20379;-48
2021/10/06 10:40:33;;;;;;;8.63;2.80;;;11.00;92.80;;;;;;5072817;28;20365;-52
2021/10/06 10:43:08;;;;;;;6.75;2.28;;;10.90;92.70;;;;;;5071540;28;20037;-49
2021/10/06 10:45:42;;;;;;;2.95;2.03;;;10.90;92.90;;;;;;5072725;28;20064;-51
2021/10/06 10:48:17;;;;;;;4.18;2.05;;;10.90;92.90;;;;;;5072523;28;20021;-49
2021/10/06 10:50:43;;;;;;;5.78;3.55;;;10.90;92.90;;;;;;5072792;28;20104;-52
2021/10/06 10:53:13;;;;;;;4.65;1.98;;;10.90;92.80;;;;;;5054713;28;20116;-50
2021/10/06 10:55:55;;;;;;;5.97;3.63;;;11.00;92.60;;;;;;5072822;28;20097;-47
2021/10/06 10:58:33;;;;;;;8.25;2.92;;;11.10;92.80;;;;;;5054245;28;20036;-51
2021/10/06 11:01:01;;;;;;;3.75;2.30;;;11.00;92.90;;;;;;5054774;28;20384;-51
2021/10/06 11:03:28;;;;;;;2.90;1.73;;;10.90;93.10;;;;;;5072343;28;20028;-50
2021/10/06 11:05:54;;;;;;;4.38;2.35;;;11.00;93.10;;;;;;5054210;28;20137;-53
2021/10/06 11:08:24;;;;;;;3.92;2.70;;;10.90;93.00;;;;;;5072308;28;20099;-48
2021/10/06 11:11:12;;;;;;;6.78;3.03;;;10.80;93.20;;;;;;5072693;28;20042;-49
2021/10/06 11:13:40;;;;;;;6.35;3.15;;;10.90;93.40;;;;;;5072228;28;20047;-49
2021/10/06 11:16:07;;;;;;;12.75;3.95;;;10.80;93.40;;;;;;5072317;28;20096;-50
2021/10/06 11:18:51;;;;;;;7.53;4.10;;;10.80;93.40;;;;;;5071675;28;20024;-52
2021/10/06 11:21:38;;;;;;;8.68;3.92;;;10.90;93.50;;;;;;5054893;28;20488;-48
2021/10/06 11:24:26;;;;;;;8.00;3.45;;;11.00;93.60;;;;;;5072410;28;20177;-51
2021/10/06 11:26:59;;;;;;;5.22;4.13;;;11.00;93.50;;;;;;5072539;28;20028;-51
2021/10/06 11:29:25;;;;;;;7.72;3.78;;;11.00;93.20;;;;;;5072477;28;20025;-53
2021/10/06 11:31:51;;;;;;;11.93;5.07;;;11.00;93.40;;;;;;5072870;28;20020;-51
2021/10/06 11:34:19;;;;;;;6.60;4.50;;;11.10;93.20;;;;;;5073347;28;20055;-52
2021/10/06 11:36:53;;;;;;;6.57;4.30;;;11.10;92.90;;;;;;5073436;28;20027;-52
2021/10/06 11:39:19;;;;;;;11.73;5.00;;;11.20;92.80;;;;;;5053997;28;20456;-49
2021/10/06 11:41:48;;;;;;;6.65;5.05;;;11.30;92.70;;;;;;5072285;28;20123;-49
2021/10/06 11:44:18;;;;;;;9.68;6.45;;;11.30;92.00;;;;;;5072142;28;20028;-51
2021/10/06 11:46:46;;;;;;;9.20;5.10;;;11.50;92.10;;;;;;5021180;28;20419;-51
2021/10/06 11:49:11;;;;;;;7.28;5.65;;;11.50;91.80;;;;;;5072550;28;20365;-50
2021/10/06 11:51:41;;;;;;;6.00;4.50;;;11.40;91.90;;;;;;5074526;28;20056;-50
2021/10/06 11:54:08;;;;;;;5.15;4.40;;;11.40;92.20;;;;;;5073131;28;20017;-49
2021/10/06 11:56:34;;;;;;;6.25;5.13;;;11.40;91.90;;;;;;5076801;28;20041;-49
2021/10/06 11:59:14;;;;;;;6.63;4.72;;;11.50;92.20;;;;;;5075549;28;20074;-51
2021/10/06 12:01:48;;;;;;;8.40;5.63;;;11.60;91.20;;;;;;5075600;28;20021;-50
2021/10/06 12:04:16;;;;;;;5.70;4.63;;;11.70;91.30;;;;;;5075510;28;20049;-49
2021/10/06 12:06:44;;;;;;;5.57;4.72;;;11.70;91.00;;;;;;5058644;28;20027;-49
2021/10/06 12:09:10;;;;;;;8.32;5.65;;;11.70;91.40;;;;;;5075111;28;20063;-50
2021/10/06 12:11:38;;;;;;;5.10;3.63;;;11.70;91.70;;;;;;5075059;28;20023;-50
2021/10/06 12:14:32;;;;;;;7.13;5.05;;;11.80;91.20;;;;;;5075036;28;20016;-51
2021/10/06 12:17:14;;;;;;;8.13;4.72;;;11.80;91.40;;;;;;5057393;28;20111;-52
2021/10/06 12:19:52;;;;;;;5.93;4.78;;;11.80;91.50;;;;;;5075194;28;20422;-49
2021/10/06 12:22:17;;;;;;;7.90;5.65;;;12.00;90.80;;;;;;5075124;28;20027;-50
2021/10/06 12:24:43;;;;;;;10.43;4.80;;;12.00;90.50;;;;;;5075220;28;20132;-49
2021/10/06 12:27:25;;;;;;;11.52;4.80;;;11.90;90.50;;;;;;5074835;28;20081;-49
2021/10/06 12:30:14;;;;;;;7.90;4.80;;;12.00;90.60;;;;;;5075216;28;20029;-55
2021/10/06 12:32:43;;;;;;;6.50;5.35;;;12.00;90.70;;;;;;5025134;28;20023;-55
2021/10/06 12:35:18;;;;;;;6.57;4.97;;;12.10;90.10;;;;;;5075266;28;20070;-51
2021/10/06 12:37:55;;;;;;;7.45;5.20;;;12.10;90.00;;;;;;5074939;28;20024;-53
2021/10/06 12:40:41;;;;;;;6.10;5.40;;;12.00;89.90;;;;;;5074580;28;20020;-52
2021/10/06 12:43:08;;;;;;;11.48;6.78;;;12.00;90.00;;;;;;5074526;28;20032;-52
2021/10/06 12:45:35;;;;;;;7.40;6.70;;;12.10;89.80;;;;;;5074189;28;20038;-49
2021/10/06 12:48:01;;;;;;;6.43;5.57;;;12.10;89.10;;;;;;5074271;28;20025;-52